Time;durP1;ratioP1;P1;durP2;ratioP2;P2;SDS_P1;SDS_P2;PMS_P1;PMS_P2;Temp;Humidity;BMP_temperature;BMP_pressure;BME280_temperature;BME280_humidity;BME280_pressure;Samples;Min_cycle;Max_cycle;Signal;HPM_P1;HPM_P2
2023/11/24 00:01:08;;;;;;;9.80;2.67;;;7.30;99.90;;;;;;5032451;28;20467;-61
2023/11/24 00:03:36;;;;;;;12.40;2.73;;;7.30;99.90;;;;;;5048433;28;20726;-64
2023/11/24 00:06:07;;;;;;;10.90;2.80;;;7.30;99.90;;;;;;5056611;28;20502;-59
2023/11/24 00:08:36;;;;;;;14.40;3.80;;;7.30;99.90;;;;;;5049638;28;20511;-64
2023/11/24 00:11:03;;;;;;;8.43;2.13;;;7.30;99.90;;;;;;5050762;28;20469;-60
2023/11/24 00:13:31;;;;;;;9.37;2.40;;;7.30;99.90;;;;;;5045478;28;20482;-60
2023/11/24 00:15:59;;;;;;;9.60;2.90;;;7.30;99.90;;;;;;5041841;28;20516;-60
2023/11/24 00:18:28;;;;;;;7.63;2.30;;;7.40;99.90;;;;;;5038836;28;20491;-61
2023/11/24 00:20:57;;;;;;;8.63;3.10;;;7.30;99.90;;;;;;5038277;28;20494;-60
2023/11/24 00:23:26;;;;;;;7.60;2.30;;;7.30;99.90;;;;;;5036949;28;21021;-60
2023/11/24 00:25:55;;;;;;;4.83;1.50;;;7.20;99.90;;;;;;5037588;28;20490;-60
2023/11/24 00:28:23;;;;;;;5.50;1.47;;;7.10;99.90;;;;;;5037925;28;20488;-60
2023/11/24 00:30:51;;;;;;;2.40;1.10;;;7.10;99.90;;;;;;5035590;28;20566;-60
2023/11/24 00:33:20;;;;;;;8.30;1.77;;;7.00;99.90;;;;;;5037878;28;20502;-60
2023/11/24 00:35:49;;;;;;;6.97;2.07;;;6.90;99.90;;;;;;5037614;28;20506;-60
2023/11/24 00:38:17;;;;;;;3.90;1.67;;;6.80;99.90;;;;;;5031374;28;20577;-60
2023/11/24 00:40:46;;;;;;;3.20;1.23;;;6.70;99.90;;;;;;5038570;28;20550;-60
2023/11/24 00:43:14;;;;;;;2.40;1.30;;;6.70;99.90;;;;;;5037097;28;20494;-60
2023/11/24 00:45:42;;;;;;;2.63;1.10;;;6.60;99.90;;;;;;5037002;28;20504;-60
2023/11/24 00:48:10;;;;;;;4.10;1.30;;;6.60;99.90;;;;;;5034143;28;20477;-60
2023/11/24 00:50:38;;;;;;;2.37;1.20;;;6.50;99.90;;;;;;5037668;28;20462;-60
2023/11/24 00:53:07;;;;;;;1.40;0.90;;;6.50;99.90;;;;;;5032802;28;20494;-60
2023/11/24 00:55:35;;;;;;;2.40;0.87;;;6.40;99.90;;;;;;5032868;28;21179;-60
2023/11/24 00:58:04;;;;;;;1.87;1.00;;;6.40;99.90;;;;;;5037136;28;20491;-60
2023/11/24 01:00:32;;;;;;;4.17;1.60;;;6.30;99.90;;;;;;5035466;28;20475;-61
2023/11/24 01:03:00;;;;;;;5.33;2.07;;;6.30;99.90;;;;;;5038869;28;20510;-60
2023/11/24 01:05:28;;;;;;;3.17;1.30;;;6.30;99.90;;;;;;5036262;28;20490;-60
2023/11/24 01:07:58;;;;;;;3.73;1.13;;;6.30;99.90;;;;;;5037446;28;20569;-60
2023/11/24 01:10:26;;;;;;;3.37;1.17;;;6.30;99.90;;;;;;5036412;28;20525;-60
2023/11/24 01:12:54;;;;;;;2.93;1.50;;;6.30;99.90;;;;;;5037194;28;20493;-61
2023/11/24 01:15:24;;;;;;;4.47;1.67;;;6.30;99.90;;;;;;5033868;28;20520;-60
2023/11/24 01:17:54;;;;;;;3.23;1.17;;;6.20;99.90;;;;;;5037852;28;20483;-61
2023/11/24 01:20:22;;;;;;;1.60;1.07;;;6.20;99.90;;;;;;5036587;28;20474;-59
2023/11/24 01:22:50;;;;;;;3.90;1.17;;;6.30;99.90;;;;;;5035195;28;20478;-60
2023/11/24 01:25:19;;;;;;;4.00;1.27;;;6.20;99.90;;;;;;5029199;28;20525;-60
2023/11/24 01:27:48;;;;;;;3.40;1.40;;;6.20;99.90;;;;;;5033992;28;20566;-60
2023/11/24 01:30:16;;;;;;;4.13;1.30;;;6.20;99.90;;;;;;5037503;28;20532;-60
2023/11/24 01:32:45;;;;;;;3.40;0.97;;;6.20;99.90;;;;;;5032454;28;20912;-59
2023/11/24 01:35:13;;;;;;;2.47;0.90;;;6.20;99.90;;;;;;5039683;28;20470;-60
2023/11/24 01:37:41;;;;;;;3.80;1.97;;;6.20;99.90;;;;;;5035418;28;20478;-60
2023/11/24 01:40:10;;;;;;;4.97;0.73;;;6.10;99.90;;;;;;5036231;28;20467;-60
2023/11/24 01:42:38;;;;;;;2.00;0.83;;;6.00;99.90;;;;;;5039090;28;20676;-60
2023/11/24 01:45:09;;;;;;;3.27;0.90;;;6.00;99.90;;;;;;5038105;28;20482;-60
2023/11/24 01:47:38;;;;;;;5.50;0.90;;;5.90;99.90;;;;;;5034533;28;20552;-60
2023/11/24 01:50:09;;;;;;;3.33;1.47;;;5.90;99.90;;;;;;5033693;28;20466;-60
2023/11/24 01:52:37;;;;;;;2.30;1.13;;;5.90;99.90;;;;;;5034189;28;20472;-59
2023/11/24 01:55:06;;;;;;;3.63;0.80;;;5.90;99.90;;;;;;5038087;28;20470;-61
2023/11/24 01:57:36;;;;;;;3.73;0.93;;;5.80;99.90;;;;;;5032108;28;20478;-60
2023/11/24 02:00:05;;;;;;;2.90;1.17;;;5.80;99.90;;;;;;5034119;28;21063;-60
2023/11/24 02:02:33;;;;;;;2.63;1.10;;;5.80;99.90;;;;;;5033384;28;20468;-60
2023/11/24 02:05:01;;;;;;;2.80;1.00;;;5.80;99.90;;;;;;5033022;28;20482;-59
2023/11/24 02:07:31;;;;;;;2.50;0.87;;;5.80;99.90;;;;;;5035374;28;20489;-60
2023/11/24 02:10:01;;;;;;;2.63;0.80;;;5.80;99.90;;;;;;5027299;28;22271;-60
2023/11/24 02:12:29;;;;;;;6.77;1.70;;;5.80;99.90;;;;;;5033361;28;20470;-60
2023/11/24 02:14:57;;;;;;;1.97;0.90;;;5.70;99.90;;;;;;5037429;28;20502;-59
2023/11/24 02:17:25;;;;;;;3.03;1.20;;;5.70;99.90;;;;;;5032611;28;20935;-60
2023/11/24 02:19:56;;;;;;;1.90;0.80;;;5.70;99.90;;;;;;5036480;28;20473;-60
2023/11/24 02:22:25;;;;;;;4.03;1.13;;;5.60;99.90;;;;;;5038279;28;20913;-60
2023/11/24 02:24:54;;;;;;;2.07;0.83;;;5.60;99.90;;;;;;5031364;28;20908;-60
2023/11/24 02:27:22;;;;;;;4.23;0.83;;;5.50;99.90;;;;;;5034816;28;20893;-60
2023/11/24 02:29:50;;;;;;;0.90;0.70;;;5.50;99.90;;;;;;5034580;28;20472;-59
2023/11/24 02:32:18;;;;;;;1.93;0.77;;;5.60;99.90;;;;;;5037651;28;20963;-60
2023/11/24 02:34:46;;;;;;;2.63;0.90;;;5.60;99.90;;;;;;5037598;28;21018;-60
2023/11/24 02:37:14;;;;;;;3.27;0.70;;;5.50;99.90;;;;;;5033315;28;20486;-59
2023/11/24 02:39:42;;;;;;;1.40;0.80;;;5.50;99.90;;;;;;5030419;28;20990;-60
2023/11/24 02:42:12;;;;;;;2.43;1.53;;;5.50;99.90;;;;;;5035563;28;20540;-60
2023/11/24 02:44:40;;;;;;;2.13;0.97;;;5.60;99.90;;;;;;5036601;28;20615;-60
2023/11/24 02:47:08;;;;;;;4.30;1.10;;;5.60;99.90;;;;;;5035059;28;20497;-61
2023/11/24 02:49:37;;;;;;;3.77;0.90;;;5.60;99.90;;;;;;5037133;28;21012;-60
2023/11/24 02:52:06;;;;;;;2.00;0.90;;;5.70;99.90;;;;;;5039746;28;20470;-64
2023/11/24 02:54:34;;;;;;;3.50;1.27;;;5.70;99.90;;;;;;5052134;28;20490;-63
2023/11/24 02:57:03;;;;;;;4.57;1.27;;;5.60;99.90;;;;;;5052969;28;21092;-65
2023/11/24 02:59:32;;;;;;;2.20;0.80;;;5.70;99.90;;;;;;5049839;28;20516;-60
2023/11/24 03:02:00;;;;;;;3.33;1.23;;;5.70;99.90;;;;;;5046234;28;20471;-60
2023/11/24 03:04:28;;;;;;;7.83;1.67;;;5.60;99.90;;;;;;5037293;28;20565;-60
2023/11/24 03:06:57;;;;;;;5.03;1.87;;;5.60;99.90;;;;;;5032816;28;20510;-60
2023/11/24 03:09:26;;;;;;;4.10;1.20;;;5.70;99.90;;;;;;5028414;28;21369;-59
2023/11/24 03:11:54;;;;;;;4.90;1.93;;;5.70;99.90;;;;;;5036247;28;20554;-60
2023/11/24 03:14:23;;;;;;;9.97;1.53;;;5.60;99.90;;;;;;5036678;28;20513;-59
2023/11/24 03:16:53;;;;;;;3.33;1.20;;;5.60;99.90;;;;;;5033870;28;20479;-60
2023/11/24 03:19:21;;;;;;;4.07;1.67;;;5.60;99.90;;;;;;5032900;28;21071;-60
2023/11/24 03:21:49;;;;;;;4.23;1.30;;;5.60;99.90;;;;;;5029017;28;21397;-60
2023/11/24 03:24:17;;;;;;;5.80;1.50;;;5.60;99.90;;;;;;5029458;28;20490;-60
2023/11/24 03:26:45;;;;;;;7.17;1.70;;;5.50;99.90;;;;;;5033120;28;20491;-61
2023/11/24 03:29:14;;;;;;;5.93;1.67;;;5.50;99.90;;;;;;5039542;28;20485;-60
2023/11/24 03:31:42;;;;;;;7.80;1.77;;;5.50;99.90;;;;;;5033868;28;20532;-60
2023/11/24 03:34:11;;;;;;;4.67;1.50;;;5.50;99.90;;;;;;5033995;28;20487;-60
2023/11/24 03:36:39;;;;;;;5.40;1.60;;;5.50;99.90;;;;;;5040646;28;20465;-60
2023/11/24 03:39:12;;;;;;;5.00;1.20;;;5.50;99.90;;;;;;5038011;28;20479;-60
2023/11/24 03:41:42;;;;;;;3.50;1.50;;;5.50;99.90;;;;;;5035467;28;20876;-60
2023/11/24 03:44:10;;;;;;;3.17;1.30;;;5.40;99.90;;;;;;5040040;28;20575;-60
2023/11/24 03:46:37;;;;;;;2.80;1.20;;;5.30;99.90;;;;;;5040275;28;20517;-60
2023/11/24 03:49:06;;;;;;;2.97;1.27;;;5.20;99.90;;;;;;5035250;28;20486;-59
2023/11/24 03:51:36;;;;;;;3.83;1.30;;;5.20;99.90;;;;;;5039650;28;20862;-60
2023/11/24 03:54:04;;;;;;;4.20;1.27;;;5.10;99.90;;;;;;5038390;28;20493;-60
2023/11/24 03:56:32;;;;;;;5.77;2.77;;;5.20;99.90;;;;;;5033865;28;20544;-59
2023/11/24 03:59:00;;;;;;;7.03;1.90;;;5.20;99.90;;;;;;5036660;28;20920;-60
2023/11/24 04:01:28;;;;;;;7.33;2.17;;;5.20;99.90;;;;;;5038913;28;20465;-60
2023/11/24 04:03:58;;;;;;;6.33;2.00;;;5.20;99.90;;;;;;5040162;28;20548;-59
2023/11/24 04:06:26;;;;;;;8.03;2.13;;;5.20;99.90;;;;;;5040215;28;20489;-59
2023/11/24 04:08:56;;;;;;;6.20;1.50;;;5.10;99.90;;;;;;5038525;28;20490;-60
2023/11/24 04:11:24;;;;;;;6.37;1.47;;;5.10;99.90;;;;;;5036880;28;20636;-59
2023/11/24 04:13:53;;;;;;;7.00;1.50;;;5.10;99.90;;;;;;5034290;28;20496;-60
2023/11/24 04:16:21;;;;;;;6.03;1.70;;;5.10;99.90;;;;;;5033430;28;20528;-60
2023/11/24 04:18:49;;;;;;;7.20;1.60;;;5.10;99.90;;;;;;5032924;28;20492;-60
2023/11/24 04:21:17;;;;;;;8.40;1.83;;;5.10;99.90;;;;;;5040279;28;20977;-60
2023/11/24 04:23:45;;;;;;;6.27;1.97;;;5.10;99.90;;;;;;5035802;28;20494;-60
2023/11/24 04:26:14;;;;;;;5.23;1.63;;;5.20;99.90;;;;;;5035097;28;20481;-60
2023/11/24 04:28:42;;;;;;;6.53;1.57;;;5.10;99.90;;;;;;5034971;28;20486;-60
2023/11/24 04:31:10;;;;;;;4.40;1.50;;;5.10;99.90;;;;;;5035363;28;20669;-60
2023/11/24 04:33:38;;;;;;;8.23;1.77;;;5.10;99.90;;;;;;5037664;28;21119;-59
2023/11/24 04:36:07;;;;;;;4.87;1.40;;;5.10;99.90;;;;;;5041038;28;20466;-60
2023/11/24 04:38:35;;;;;;;2.77;1.30;;;5.10;99.90;;;;;;5033441;28;20569;-60
2023/11/24 04:41:03;;;;;;;5.53;1.50;;;5.10;99.90;;;;;;5032824;28;20470;-59
2023/11/24 04:43:32;;;;;;;5.00;1.27;;;5.10;99.90;;;;;;5035957;28;21856;-60
2023/11/24 04:46:00;;;;;;;3.03;1.33;;;5.10;99.90;;;;;;5035869;28;20486;-59
2023/11/24 04:48:29;;;;;;;5.60;1.37;;;5.00;99.90;;;;;;5032232;28;21027;-59
2023/11/24 04:50:57;;;;;;;4.97;1.73;;;5.10;99.90;;;;;;5038069;28;20475;-60
2023/11/24 04:53:25;;;;;;;6.93;2.37;;;5.00;99.90;;;;;;5039208;28;20482;-60
2023/11/24 04:55:54;;;;;;;4.63;1.43;;;5.00;99.90;;;;;;5034097;28;21081;-60
2023/11/24 04:58:22;;;;;;;4.83;1.73;;;4.90;99.90;;;;;;5036113;28;20867;-60
2023/11/24 05:00:51;;;;;;;6.27;1.90;;;5.00;99.90;;;;;;5037905;28;20556;-59
2023/11/24 05:03:19;;;;;;;5.30;1.93;;;4.90;99.90;;;;;;5037668;28;20586;-60
2023/11/24 05:05:47;;;;;;;3.87;1.50;;;4.90;99.90;;;;;;5038223;28;20552;-60
2023/11/24 05:08:15;;;;;;;8.70;1.60;;;4.90;99.90;;;;;;5037586;28;20493;-60
2023/11/24 05:10:44;;;;;;;6.70;1.17;;;4.90;99.90;;;;;;5035953;28;20530;-60
2023/11/24 05:13:12;;;;;;;5.13;1.70;;;4.90;99.90;;;;;;5031435;28;20870;-60
2023/11/24 05:15:40;;;;;;;4.57;1.50;;;4.90;99.90;;;;;;5037562;28;21769;-60
2023/11/24 05:18:10;;;;;;;2.67;1.30;;;4.90;99.90;;;;;;5036034;28;20493;-60
2023/11/24 05:20:38;;;;;;;4.93;1.60;;;5.00;99.90;;;;;;5037788;28;20472;-59
2023/11/24 05:23:06;;;;;;;7.60;1.70;;;5.00;99.90;;;;;;5037836;28;20578;-60
2023/11/24 05:25:34;;;;;;;6.47;2.10;;;5.00;99.90;;;;;;5037561;28;20524;-60
2023/11/24 05:28:02;;;;;;;6.60;2.13;;;5.00;99.90;;;;;;5039235;28;20844;-60
2023/11/24 05:30:30;;;;;;;5.87;2.30;;;5.10;99.90;;;;;;5033154;28;20466;-60
2023/11/24 05:32:58;;;;;;;5.47;1.90;;;5.00;99.90;;;;;;5035632;28;21296;-60
2023/11/24 05:35:28;;;;;;;9.30;1.80;;;5.10;99.90;;;;;;5034500;28;20900;-57
2023/11/24 05:37:56;;;;;;;7.40;1.90;;;5.10;99.90;;;;;;5037519;28;20569;-60
2023/11/24 05:40:24;;;;;;;7.07;1.63;;;5.10;99.90;;;;;;5037943;28;20475;-60
2023/11/24 05:42:52;;;;;;;6.63;1.93;;;5.10;99.90;;;;;;5027988;28;20485;-60
2023/11/24 05:45:23;;;;;;;9.30;2.10;;;5.10;99.90;;;;;;5035128;28;20465;-60
2023/11/24 05:47:51;;;;;;;5.40;2.53;;;5.10;99.90;;;;;;5038866;28;20510;-60
2023/11/24 05:50:22;;;;;;;5.70;1.50;;;5.00;99.90;;;;;;5037013;28;20502;-60
2023/11/24 05:52:52;;;;;;;8.40;2.47;;;5.10;99.90;;;;;;5036279;28;20490;-60
2023/11/24 05:55:20;;;;;;;5.30;1.60;;;5.10;99.90;;;;;;5040292;28;20511;-60
2023/11/24 05:57:48;;;;;;;6.50;2.70;;;5.10;99.90;;;;;;5031216;28;20492;-60
2023/11/24 06:00:18;;;;;;;4.53;1.60;;;5.10;99.90;;;;;;5037006;28;20547;-59
2023/11/24 06:02:46;;;;;;;7.43;1.83;;;5.10;99.90;;;;;;5036403;28;20475;-60
2023/11/24 06:05:15;;;;;;;8.03;2.23;;;5.00;99.90;;;;;;5035156;28;20510;-60
2023/11/24 06:07:44;;;;;;;8.93;1.83;;;5.10;99.90;;;;;;5031839;28;20649;-60
2023/11/24 06:10:14;;;;;;;10.77;2.83;;;5.10;99.90;;;;;;5035187;28;20854;-60
2023/11/24 06:12:44;;;;;;;6.50;2.37;;;5.10;99.90;;;;;;5024222;28;20478;-60
2023/11/24 06:15:13;;;;;;;4.87;1.57;;;5.10;99.90;;;;;;5026022;28;20731;-60
2023/11/24 06:17:42;;;;;;;7.07;1.97;;;5.10;99.90;;;;;;5025308;28;20497;-60
2023/11/24 06:20:11;;;;;;;5.70;1.60;;;5.10;99.90;;;;;;5028456;28;20482;-60
2023/11/24 06:22:39;;;;;;;5.73;2.10;;;5.10;99.90;;;;;;5028195;28;20470;-60
2023/11/24 06:25:10;;;;;;;6.00;1.60;;;5.10;99.90;;;;;;5032536;28;20474;-61
2023/11/24 06:27:44;;;;;;;3.70;1.90;;;5.10;99.90;;;;;;5033495;28;20577;-59
2023/11/24 06:30:13;;;;;;;6.20;1.40;;;5.10;99.90;;;;;;5010406;28;20471;-60
2023/11/24 06:32:41;;;;;;;7.60;1.70;;;5.00;99.90;;;;;;5022099;28;20539;-60
2023/11/24 06:35:10;;;;;;;6.30;1.20;;;5.00;99.90;;;;;;5025225;28;20607;-60
2023/11/24 06:37:40;;;;;;;7.57;1.47;;;5.10;99.90;;;;;;5027689;28;20490;-61
2023/11/24 06:40:11;;;;;;;8.23;1.50;;;5.00;99.90;;;;;;5027344;28;20466;-60
2023/11/24 06:42:40;;;;;;;4.10;1.60;;;5.00;99.90;;;;;;5017744;28;20477;-60
2023/11/24 06:45:12;;;;;;;7.13;1.83;;;5.00;99.90;;;;;;5026986;28;20863;-60
2023/11/24 06:47:40;;;;;;;6.73;1.63;;;5.10;99.90;;;;;;5028550;28;20499;-60
2023/11/24 06:50:12;;;;;;;4.57;1.57;;;5.00;99.90;;;;;;5025326;28;20639;-60
2023/11/24 06:52:40;;;;;;;6.37;1.60;;;5.00;99.90;;;;;;5028200;28;20605;-60
2023/11/24 06:55:10;;;;;;;2.67;1.43;;;5.00;99.90;;;;;;5029080;28;20920;-60
2023/11/24 06:57:39;;;;;;;1.60;1.17;;;5.00;99.90;;;;;;5031589;28;20492;-59
2023/11/24 07:00:16;;;;;;;4.83;1.30;;;4.90;99.90;;;;;;5020018;28;23874;-61
2023/11/24 07:02:44;;;;;;;3.13;0.90;;;4.90;99.90;;;;;;5028358;28;20482;-59
2023/11/24 07:05:12;;;;;;;2.30;0.77;;;4.80;99.90;;;;;;5033273;28;20474;-60
2023/11/24 07:07:40;;;;;;;3.57;1.20;;;4.70;99.90;;;;;;5019273;28;21049;-61
2023/11/24 07:10:11;;;;;;;3.73;1.10;;;4.60;99.90;;;;;;5026012;28;20526;-59
2023/11/24 07:12:42;;;;;;;1.80;1.00;;;4.50;99.90;;;;;;5027423;28;20473;-60
2023/11/24 07:15:12;;;;;;;2.60;0.70;;;4.50;99.90;;;;;;5021301;28;20468;-61
2023/11/24 07:17:40;;;;;;;2.57;0.90;;;4.40;99.90;;;;;;5033501;28;20478;-60
2023/11/24 07:20:11;;;;;;;1.43;0.80;;;4.30;99.90;;;;;;5025833;28;20468;-61
2023/11/24 07:22:39;;;;;;;4.10;1.07;;;4.30;99.90;;;;;;5024439;28;20548;-60
2023/11/24 07:25:08;;;;;;;2.53;1.20;;;4.20;99.90;;;;;;5027052;28;21925;-60
2023/11/24 07:27:36;;;;;;;1.60;0.90;;;4.20;99.90;;;;;;5019079;28;20489;-60
2023/11/24 07:30:05;;;;;;;2.90;0.80;;;4.20;99.90;;;;;;5027602;28;20492;-61
2023/11/24 07:32:34;;;;;;;6.13;1.23;;;4.20;99.90;;;;;;5025660;28;20568;-60
2023/11/24 07:35:03;;;;;;;1.93;1.10;;;4.20;99.90;;;;;;5024592;28;20476;-60
2023/11/24 07:37:31;;;;;;;2.50;1.40;;;4.10;99.90;;;;;;5021724;28;20601;-60
2023/11/24 07:39:59;;;;;;;2.97;0.90;;;4.10;99.90;;;;;;5019287;28;20463;-60
2023/11/24 07:42:27;;;;;;;3.10;1.10;;;4.10;99.90;;;;;;5034131;28;20564;-60
2023/11/24 07:44:55;;;;;;;7.20;2.07;;;4.10;99.90;;;;;;5026997;28;20883;-60
2023/11/24 07:47:23;;;;;;;5.87;1.50;;;4.20;99.90;;;;;;5027917;28;20519;-60
2023/11/24 07:49:57;;;;;;;2.30;1.10;;;4.20;99.90;;;;;;5025671;28;20519;-60
2023/11/24 07:52:26;;;;;;;2.00;0.90;;;4.20;99.90;;;;;;5034515;28;20470;-60
2023/11/24 07:54:54;;;;;;;2.17;1.23;;;4.20;99.90;;;;;;5023210;28;20483;-60
2023/11/24 07:57:24;;;;;;;2.93;1.17;;;4.20;99.90;;;;;;5022719;28;20474;-60
2023/11/24 07:59:52;;;;;;;4.60;1.30;;;4.20;99.90;;;;;;5031883;28;20584;-60
2023/11/24 08:02:20;;;;;;;3.17;1.20;;;4.30;99.90;;;;;;5004707;28;20483;-60
2023/11/24 08:04:49;;;;;;;3.23;1.10;;;4.40;99.90;;;;;;5004525;28;20494;-60
2023/11/24 08:07:19;;;;;;;3.87;1.00;;;4.40;99.90;;;;;;5010390;28;20583;-60
2023/11/24 08:09:47;;;;;;;5.20;1.70;;;4.40;99.90;;;;;;5008203;28;20502;-59
2023/11/24 08:12:15;;;;;;;1.77;1.10;;;4.40;99.90;;;;;;5002397;28;20503;-59
2023/11/24 08:14:43;;;;;;;3.60;1.10;;;4.40;99.90;;;;;;5002223;28;20502;-60
2023/11/24 08:17:11;;;;;;;5.70;1.20;;;4.50;99.90;;;;;;5002660;28;20475;-60
2023/11/24 08:19:39;;;;;;;3.67;1.03;;;4.50;99.90;;;;;;4992882;28;20604;-60
2023/11/24 08:22:07;;;;;;;5.20;1.70;;;4.50;99.90;;;;;;4994909;28;21043;-60
2023/11/24 08:24:38;;;;;;;3.43;1.20;;;4.60;99.90;;;;;;4994954;28;20597;-60
2023/11/24 08:27:06;;;;;;;4.70;1.20;;;4.60;99.90;;;;;;4998407;28;20473;-60
2023/11/24 08:29:35;;;;;;;3.33;1.20;;;4.60;99.90;;;;;;4998552;28;20509;-60
2023/11/24 08:32:04;;;;;;;5.70;1.27;;;4.60;99.90;;;;;;5002628;28;20470;-59
2023/11/24 08:34:32;;;;;;;2.77;1.20;;;4.60;99.90;;;;;;4999601;28;20520;-60
2023/11/24 08:37:02;;;;;;;4.70;1.60;;;4.60;99.90;;;;;;4994453;28;20481;-60
2023/11/24 08:39:30;;;;;;;6.67;1.27;;;4.60;99.90;;;;;;5006302;28;21547;-59
2023/11/24 08:41:59;;;;;;;6.30;2.20;;;4.60;99.90;;;;;;5012606;28;21091;-60
2023/11/24 08:44:27;;;;;;;4.33;1.60;;;4.70;99.90;;;;;;5009114;28;20497;-60
2023/11/24 08:46:56;;;;;;;6.87;1.53;;;4.70;99.90;;;;;;5009380;28;20478;-60
2023/11/24 08:49:24;;;;;;;4.00;1.60;;;4.70;99.90;;;;;;5009726;28;20696;-60
2023/11/24 08:51:52;;;;;;;6.20;2.40;;;4.80;99.90;;;;;;5005267;28;20475;-60
2023/11/24 08:54:22;;;;;;;7.33;1.50;;;4.80;99.90;;;;;;5009333;28;20491;-59
2023/11/24 08:56:51;;;;;;;4.10;1.70;;;4.90;99.90;;;;;;5012376;28;20474;-60
2023/11/24 08:59:21;;;;;;;2.73;1.20;;;4.90;99.90;;;;;;5005497;28;20621;-61
2023/11/24 09:01:51;;;;;;;7.60;2.07;;;5.00;99.90;;;;;;5002265;28;20825;-61
2023/11/24 09:04:20;;;;;;;6.27;1.40;;;5.00;99.90;;;;;;5003291;28;20520;-60
2023/11/24 09:06:50;;;;;;;4.77;1.70;;;5.00;99.90;;;;;;5010956;28;20478;-60
2023/11/24 09:09:18;;;;;;;3.90;1.73;;;5.00;99.90;;;;;;5006129;28;20499;-59
2023/11/24 09:11:46;;;;;;;6.63;2.00;;;5.10;99.90;;;;;;5009200;28;20481;-60
2023/11/24 09:14:14;;;;;;;3.70;1.30;;;5.10;99.90;;;;;;5011345;28;20571;-60
2023/11/24 09:16:44;;;;;;;4.53;1.40;;;5.10;99.90;;;;;;5005665;28;20476;-61
2023/11/24 09:19:12;;;;;;;3.67;1.20;;;5.10;99.90;;;;;;5008056;28;20494;-60
2023/11/24 09:21:40;;;;;;;8.90;2.47;;;5.00;99.90;;;;;;5008282;28;20597;-61
2023/11/24 09:24:10;;;;;;;5.10;1.57;;;5.00;99.90;;;;;;5000494;28;20612;-60
2023/11/24 09:26:38;;;;;;;4.83;1.43;;;4.90;99.90;;;;;;5008488;28;20618;-60
2023/11/24 09:29:06;;;;;;;4.27;1.60;;;4.90;99.90;;;;;;5006124;28;21900;-61
2023/11/24 09:31:35;;;;;;;7.33;1.50;;;5.00;99.90;;;;;;5005216;28;20494;-60
2023/11/24 09:34:04;;;;;;;9.13;1.70;;;5.00;99.90;;;;;;5005467;28;20485;-60
2023/11/24 09:36:32;;;;;;;3.97;1.70;;;5.00;99.90;;;;;;5007585;28;20489;-60
2023/11/24 09:39:00;;;;;;;8.80;1.83;;;5.00;99.90;;;;;;5007605;28;20490;-60
2023/11/24 09:41:29;;;;;;;4.83;1.67;;;5.00;99.90;;;;;;5007576;28;21455;-60
2023/11/24 09:43:59;;;;;;;6.27;1.60;;;5.10;99.90;;;;;;5007763;28;21023;-60
2023/11/24 09:46:27;;;;;;;4.27;2.20;;;5.20;99.90;;;;;;5009790;28;21336;-60
2023/11/24 09:49:11;;;;;;;6.90;1.50;;;5.30;99.90;;;;;;5006084;28;21027;-59
2023/11/24 09:51:40;;;;;;;5.80;1.87;;;5.40;99.90;;;;;;5010647;28;20498;-60
2023/11/24 09:54:10;;;;;;;6.13;1.70;;;5.50;99.90;;;;;;5011866;28;20502;-60
2023/11/24 09:56:40;;;;;;;4.77;1.53;;;5.60;99.90;;;;;;5032297;28;20469;-60
2023/11/24 09:59:09;;;;;;;3.20;1.30;;;5.70;99.90;;;;;;5032047;28;20565;-60
2023/11/24 10:01:37;;;;;;;4.50;2.13;;;5.70;99.90;;;;;;5025936;28;20466;-59
2023/11/24 10:04:06;;;;;;;3.17;1.60;;;5.60;99.90;;;;;;5021514;28;20501;-60
2023/11/24 10:06:39;;;;;;;2.40;1.23;;;5.60;99.90;;;;;;5031854;28;20477;-60
2023/11/24 10:09:10;;;;;;;4.03;1.40;;;5.50;99.90;;;;;;5029068;28;20544;-61
2023/11/24 10:11:39;;;;;;;4.40;1.83;;;5.40;99.90;;;;;;5026006;28;20593;-59
2023/11/24 10:14:11;;;;;;;6.43;1.60;;;5.40;99.90;;;;;;5020755;28;20633;-60
2023/11/24 10:16:41;;;;;;;7.20;1.63;;;5.40;99.90;;;;;;5026143;28;20586;-60
2023/11/24 10:19:14;;;;;;;8.20;1.60;;;5.50;99.90;;;;;;5029055;28;20479;-60
2023/11/24 10:21:53;;;;;;;5.57;1.63;;;5.50;99.90;;;;;;5026942;28;20518;-59
2023/11/24 10:24:25;;;;;;;7.37;1.97;;;5.50;99.90;;;;;;5016896;28;20477;-60
2023/11/24 10:26:53;;;;;;;6.73;2.40;;;5.50;99.90;;;;;;5017398;28;20471;-60
2023/11/24 10:29:24;;;;;;;3.63;1.73;;;5.50;99.90;;;;;;5023570;28;20500;-60
2023/11/24 10:31:52;;;;;;;6.53;1.60;;;5.50;99.90;;;;;;5027428;28;20578;-60
2023/11/24 10:34:21;;;;;;;5.30;1.73;;;5.50;99.90;;;;;;5028629;28;20569;-60
2023/11/24 10:36:51;;;;;;;3.83;1.40;;;5.40;99.90;;;;;;5021064;28;20472;-59
2023/11/24 10:39:22;;;;;;;4.87;1.80;;;5.40;99.90;;;;;;5026505;28;20491;-60
2023/11/24 10:41:54;;;;;;;5.27;1.50;;;5.40;99.90;;;;;;5029644;28;20918;-60
2023/11/24 10:44:24;;;;;;;5.87;1.40;;;5.40;99.90;;;;;;5029212;28;20503;-60
2023/11/24 10:47:00;;;;;;;3.60;1.30;;;5.40;99.90;;;;;;5027517;28;20512;-60
2023/11/24 10:49:34;;;;;;;1.90;1.00;;;5.40;99.90;;;;;;5011434;28;20504;-60
2023/11/24 10:52:13;;;;;;;2.50;1.00;;;5.40;99.90;;;;;;5026880;28;20569;-60
2023/11/24 10:54:51;;;;;;;3.53;1.10;;;5.50;99.90;;;;;;5028147;28;20864;-61
2023/11/24 10:57:22;;;;;;;2.20;1.03;;;5.70;99.90;;;;;;5027937;28;20473;-60
2023/11/24 10:59:51;;;;;;;4.87;1.20;;;5.80;99.90;;;;;;5021614;28;21070;-59
2023/11/24 11:02:20;;;;;;;3.63;1.00;;;5.90;99.90;;;;;;5027838;28;20694;-59
2023/11/24 11:05:00;;;;;;;2.90;1.10;;;5.90;99.90;;;;;;5022303;28;20500;-58
2023/11/24 11:07:41;;;;;;;4.10;1.27;;;5.80;99.90;;;;;;5034591;28;20482;-60
2023/11/24 11:10:12;;;;;;;2.00;0.80;;;5.90;99.90;;;;;;5028143;28;20544;-60
2023/11/24 11:12:49;;;;;;;2.17;1.33;;;5.80;99.90;;;;;;5020731;28;20546;-60
2023/11/24 11:15:23;;;;;;;1.90;1.10;;;5.70;99.90;;;;;;5034360;28;21030;-60
2023/11/24 11:18:07;;;;;;;3.57;0.90;;;5.70;99.90;;;;;;5030782;28;20583;-60
2023/11/24 11:20:38;;;;;;;2.50;1.10;;;5.60;99.90;;;;;;5031638;28;20464;-60
2023/11/24 11:23:08;;;;;;;2.87;1.80;;;5.60;99.90;;;;;;5016881;28;20490;-60
2023/11/24 11:25:42;;;;;;;2.30;0.97;;;5.60;99.90;;;;;;5024912;28;20474;-60
2023/11/24 11:28:35;;;;;;;1.80;0.97;;;5.60;99.90;;;;;;5032203;28;20474;-60
2023/11/24 11:31:32;;;;;;;2.90;1.00;;;5.60;99.90;;;;;;5026173;28;20667;-60
2023/11/24 11:34:12;;;;;;;2.10;0.90;;;5.50;99.90;;;;;;5022338;28;20494;-58
2023/11/24 11:37:11;;;;;;;1.97;0.93;;;5.50;99.90;;;;;;5022937;28;20477;-67
2023/11/24 11:39:53;;;;;;;2.20;0.83;;;5.50;99.90;;;;;;5016072;28;20472;-58
2023/11/24 11:42:28;;;;;;;3.80;1.47;;;5.60;99.90;;;;;;5029657;28;20473;-60
2023/11/24 11:44:57;;;;;;;2.47;1.10;;;5.70;99.90;;;;;;5016644;28;20494;-59
2023/11/24 11:47:26;;;;;;;1.73;1.00;;;5.80;99.90;;;;;;5011842;28;20475;-60
2023/11/24 11:49:56;;;;;;;2.83;1.10;;;5.80;99.90;;;;;;5027285;28;20474;-60
2023/11/24 11:52:26;;;;;;;3.33;1.27;;;5.80;99.90;;;;;;5030813;28;21004;-64
2023/11/24 11:54:58;;;;;;;3.00;0.90;;;5.80;99.90;;;;;;5031245;28;20495;-63
2023/11/24 11:57:27;;;;;;;2.60;0.90;;;5.70;99.90;;;;;;5026255;28;20512;-60
2023/11/24 11:59:56;;;;;;;2.17;0.90;;;5.70;99.90;;;;;;5028628;28;20475;-62
2023/11/24 12:02:24;;;;;;;4.47;1.10;;;5.60;99.90;;;;;;5032223;28;20553;-63
2023/11/24 12:04:52;;;;;;;2.20;0.90;;;5.50;99.90;;;;;;5025365;28;20581;-60
2023/11/24 12:07:22;;;;;;;2.03;0.80;;;5.40;99.90;;;;;;5030203;28;20466;-60
2023/11/24 12:09:50;;;;;;;3.23;1.27;;;5.30;99.90;;;;;;5027450;28;20553;-60
2023/11/24 12:12:22;;;;;;;1.20;0.87;;;5.20;99.90;;;;;;5023930;28;20576;-60
2023/11/24 12:14:54;;;;;;;2.50;0.80;;;5.20;99.90;;;;;;5026882;28;21056;-60
2023/11/24 12:17:23;;;;;;;4.33;0.80;;;5.20;99.90;;;;;;5033446;28;20487;-60
2023/11/24 12:19:52;;;;;;;1.60;0.90;;;5.20;99.90;;;;;;5029240;28;21065;-63
2023/11/24 12:22:21;;;;;;;1.13;0.80;;;5.20;99.90;;;;;;5028055;28;20481;-64
2023/11/24 12:24:50;;;;;;;1.20;1.10;;;5.20;99.90;;;;;;5020946;28;20497;-63
2023/11/24 12:27:21;;;;;;;3.47;1.10;;;5.20;99.90;;;;;;5016162;28;20565;-62
2023/11/24 12:29:51;;;;;;;1.73;0.90;;;5.20;99.90;;;;;;5022083;28;20832;-62
2023/11/24 12:32:22;;;;;;;3.80;1.30;;;5.20;99.90;;;;;;5031614;28;20552;-64
2023/11/24 12:34:51;;;;;;;4.67;1.20;;;5.20;99.90;;;;;;5019535;28;20486;-66
2023/11/24 12:37:19;;;;;;;3.23;1.07;;;5.20;99.90;;;;;;5022081;28;20475;-62
2023/11/24 12:39:47;;;;;;;5.33;1.13;;;5.10;99.90;;;;;;5032060;28;20501;-63
2023/11/24 12:42:17;;;;;;;3.47;1.13;;;5.10;99.90;;;;;;5032956;28;20474;-63
2023/11/24 12:44:48;;;;;;;4.00;1.70;;;5.20;99.90;;;;;;5038643;28;20494;-60
2023/11/24 12:47:24;;;;;;;4.97;1.53;;;5.10;99.90;;;;;;5038073;28;20471;-63
2023/11/24 12:50:11;;;;;;;2.17;1.10;;;5.10;99.90;;;;;;5038886;28;21004;-63
2023/11/24 12:52:41;;;;;;;4.93;1.10;;;5.10;99.90;;;;;;5039478;28;20705;-60
2023/11/24 12:55:10;;;;;;;2.37;0.93;;;5.00;99.90;;;;;;5024899;28;20467;-62
2023/11/24 12:57:41;;;;;;;1.63;1.00;;;5.00;99.90;;;;;;5034173;28;20467;-62
2023/11/24 13:00:14;;;;;;;4.43;2.50;;;5.00;99.90;;;;;;5028305;28;20466;-63
2023/11/24 13:02:44;;;;;;;3.00;1.10;;;5.00;99.90;;;;;;5031145;28;20467;-60
2023/11/24 13:05:15;;;;;;;4.00;1.63;;;4.90;99.90;;;;;;5032899;28;20459;-60
2023/11/24 13:07:44;;;;;;;1.40;1.00;;;4.90;99.90;;;;;;5026297;28;20631;-60
2023/11/24 13:10:13;;;;;;;2.97;1.40;;;4.80;99.90;;;;;;5032227;28;20847;-59